sensor_id;sensor_type;location;lat;lon;timestamp;P1;durP1;ratioP1;P2;durP2;ratioP2
71622;SDS011;59473;53.214;5.728;2022-11-20T00:01:31;19.98;;;11.82;;
71622;SDS011;59473;53.214;5.728;2022-11-20T00:03:56;19.07;;;11.40;;
71622;SDS011;59473;53.214;5.728;2022-11-20T00:06:23;18.38;;;11.35;;
71622;SDS011;59473;53.214;5.728;2022-11-20T00:08:48;21.07;;;11.93;;
71622;SDS011;59473;53.214;5.728;2022-11-20T00:11:18;22.33;;;11.90;;
71622;SDS011;59473;53.214;5.728;2022-11-20T00:13:44;15.95;;;10.77;;
71622;SDS011;59473;53.214;5.728;2022-11-20T00:16:10;21.02;;;12.55;;
71622;SDS011;59473;53.214;5.728;2022-11-20T00:18:35;20.75;;;11.98;;
71622;SDS011;59473;53.214;5.728;2022-11-20T00:21:02;18.33;;;11.30;;
71622;SDS011;59473;53.214;5.728;2022-11-20T00:23:27;20.70;;;11.70;;
71622;SDS011;59473;53.214;5.728;2022-11-20T00:25:52;19.90;;;10.63;;
71622;SDS011;59473;53.214;5.728;2022-11-20T00:28:17;22.03;;;11.90;;
71622;SDS011;59473;53.214;5.728;2022-11-20T00:30:42;19.93;;;11.23;;
71622;SDS011;59473;53.214;5.728;2022-11-20T00:33:08;17.23;;;11.20;;
71622;SDS011;59473;53.214;5.728;2022-11-20T00:35:33;18.73;;;12.10;;
71622;SDS011;59473;53.214;5.728;2022-11-20T00:37:58;19.63;;;11.13;;
71622;SDS011;59473;53.214;5.728;2022-11-20T00:40:23;18.67;;;10.90;;
71622;SDS011;59473;53.214;5.728;2022-11-20T00:42:48;17.63;;;10.93;;
71622;SDS011;59473;53.214;5.728;2022-11-20T00:45:14;18.23;;;11.47;;
71622;SDS011;59473;53.214;5.728;2022-11-20T00:47:39;21.30;;;13.47;;
71622;SDS011;59473;53.214;5.728;2022-11-20T00:50:04;19.70;;;10.93;;
71622;SDS011;59473;53.214;5.728;2022-11-20T00:52:29;19.23;;;11.93;;
71622;SDS011;59473;53.214;5.728;2022-11-20T00:54:55;18.27;;;11.30;;
71622;SDS011;59473;53.214;5.728;2022-11-20T00:57:20;16.07;;;10.77;;
71622;SDS011;59473;53.214;5.728;2022-11-20T00:59:45;18.37;;;11.10;;
71622;SDS011;59473;53.214;5.728;2022-11-20T01:02:10;21.37;;;12.23;;
71622;SDS011;59473;53.214;5.728;2022-11-20T01:04:35;19.20;;;11.13;;
71622;SDS011;59473;53.214;5.728;2022-11-20T01:07:01;18.77;;;11.43;;
71622;SDS011;59473;53.214;5.728;2022-11-20T01:09:26;16.77;;;10.40;;
71622;SDS011;59473;53.214;5.728;2022-11-20T01:11:51;17.30;;;11.03;;
71622;SDS011;59473;53.214;5.728;2022-11-20T01:14:17;19.27;;;12.10;;
71622;SDS011;59473;53.214;5.728;2022-11-20T01:16:44;19.97;;;11.47;;
71622;SDS011;59473;53.214;5.728;2022-11-20T01:19:11;18.55;;;11.40;;
71622;SDS011;59473;53.214;5.728;2022-11-20T01:21:37;18.73;;;11.38;;
71622;SDS011;59473;53.214;5.728;2022-11-20T01:24:03;21.63;;;11.35;;
71622;SDS011;59473;53.214;5.728;2022-11-20T01:26:31;22.20;;;12.35;;
71622;SDS011;59473;53.214;5.728;2022-11-20T01:28:56;23.37;;;11.53;;
71622;SDS011;59473;53.214;5.728;2022-11-20T01:31:23;18.48;;;11.20;;
71622;SDS011;59473;53.214;5.728;2022-11-20T01:33:49;16.23;;;11.27;;
71622;SDS011;59473;53.214;5.728;2022-11-20T01:36:15;21.20;;;12.15;;
71622;SDS011;59473;53.214;5.728;2022-11-20T01:38:40;19.00;;;11.80;;
71622;SDS011;59473;53.214;5.728;2022-11-20T01:41:06;20.00;;;12.00;;
71622;SDS011;59473;53.214;5.728;2022-11-20T01:43:32;18.30;;;11.60;;
71622;SDS011;59473;53.214;5.728;2022-11-20T01:46:01;19.55;;;11.73;;
71622;SDS011;59473;53.214;5.728;2022-11-20T01:48:38;24.33;;;10.93;;
71622;SDS011;59473;53.214;5.728;2022-11-20T01:51:04;18.50;;;11.48;;
71622;SDS011;59473;53.214;5.728;2022-11-20T01:53:32;19.13;;;11.88;;
71622;SDS011;59473;53.214;5.728;2022-11-20T01:55:58;21.40;;;11.63;;
71622;SDS011;59473;53.214;5.728;2022-11-20T01:58:26;21.70;;;12.20;;
71622;SDS011;59473;53.214;5.728;2022-11-20T02:00:52;18.43;;;11.03;;
71622;SDS011;59473;53.214;5.728;2022-11-20T02:03:18;18.47;;;11.20;;
71622;SDS011;59473;53.214;5.728;2022-11-20T02:08:21;18.05;;;11.80;;
71622;SDS011;59473;53.214;5.728;2022-11-20T02:10:48;20.35;;;11.60;;
71622;SDS011;59473;53.214;5.728;2022-11-20T02:13:13;18.80;;;11.83;;
71622;SDS011;59473;53.214;5.728;2022-11-20T02:15:56;21.65;;;11.35;;
71622;SDS011;59473;53.214;5.728;2022-11-20T02:18:22;17.97;;;11.33;;
71622;SDS011;59473;53.214;5.728;2022-11-20T02:20:49;20.17;;;11.70;;
71622;SDS011;59473;53.214;5.728;2022-11-20T02:25:40;22.90;;;12.17;;
71622;SDS011;59473;53.214;5.728;2022-11-20T02:28:06;23.58;;;12.00;;
71622;SDS011;59473;53.214;5.728;2022-11-20T02:30:32;20.07;;;12.47;;
71622;SDS011;59473;53.214;5.728;2022-11-20T02:32:57;17.73;;;10.63;;
71622;SDS011;59473;53.214;5.728;2022-11-20T02:37:48;18.50;;;12.27;;
71622;SDS011;59473;53.214;5.728;2022-11-20T02:40:14;17.85;;;11.43;;
71622;SDS011;59473;53.214;5.728;2022-11-20T02:42:40;19.67;;;11.47;;
71622;SDS011;59473;53.214;5.728;2022-11-20T02:45:05;19.17;;;10.87;;
71622;SDS011;59473;53.214;5.728;2022-11-20T02:47:31;19.67;;;12.65;;
71622;SDS011;59473;53.214;5.728;2022-11-20T02:49:56;19.27;;;11.07;;
71622;SDS011;59473;53.214;5.728;2022-11-20T02:52:21;19.37;;;11.40;;
71622;SDS011;59473;53.214;5.728;2022-11-20T02:54:46;17.63;;;10.97;;
71622;SDS011;59473;53.214;5.728;2022-11-20T02:57:12;20.27;;;11.53;;
71622;SDS011;59473;53.214;5.728;2022-11-20T02:59:37;18.57;;;10.87;;
71622;SDS011;59473;53.214;5.728;2022-11-20T03:02:02;20.33;;;11.47;;
71622;SDS011;59473;53.214;5.728;2022-11-20T03:04:27;19.50;;;11.77;;
71622;SDS011;59473;53.214;5.728;2022-11-20T03:06:52;19.97;;;11.10;;
71622;SDS011;59473;53.214;5.728;2022-11-20T03:09:18;20.50;;;11.73;;
71622;SDS011;59473;53.214;5.728;2022-11-20T03:11:43;17.97;;;10.93;;
71622;SDS011;59473;53.214;5.728;2022-11-20T03:14:08;21.17;;;12.33;;
71622;SDS011;59473;53.214;5.728;2022-11-20T03:16:33;20.13;;;11.53;;
71622;SDS011;59473;53.214;5.728;2022-11-20T03:18:59;17.93;;;10.90;;
71622;SDS011;59473;53.214;5.728;2022-11-20T03:21:24;21.57;;;11.57;;
71622;SDS011;59473;53.214;5.728;2022-11-20T03:23:49;18.40;;;11.70;;
71622;SDS011;59473;53.214;5.728;2022-11-20T03:26:19;19.37;;;12.50;;
71622;SDS011;59473;53.214;5.728;2022-11-20T03:28:48;19.00;;;11.75;;
71622;SDS011;59473;53.214;5.728;2022-11-20T03:31:14;19.48;;;12.23;;
71622;SDS011;59473;53.214;5.728;2022-11-20T03:33:40;18.90;;;12.50;;
71622;SDS011;59473;53.214;5.728;2022-11-20T03:36:07;21.92;;;12.70;;
71622;SDS011;59473;53.214;5.728;2022-11-20T03:38:32;18.10;;;11.88;;
71622;SDS011;59473;53.214;5.728;2022-11-20T03:41:01;18.63;;;11.97;;
71622;SDS011;59473;53.214;5.728;2022-11-20T03:43:27;18.63;;;12.52;;
71622;SDS011;59473;53.214;5.728;2022-11-20T03:45:53;22.03;;;12.00;;
71622;SDS011;59473;53.214;5.728;2022-11-20T03:48:18;19.10;;;12.57;;
71622;SDS011;59473;53.214;5.728;2022-11-20T03:50:43;19.70;;;12.20;;
71622;SDS011;59473;53.214;5.728;2022-11-20T03:53:08;21.47;;;13.30;;
71622;SDS011;59473;53.214;5.728;2022-11-20T03:55:33;18.97;;;12.13;;
71622;SDS011;59473;53.214;5.728;2022-11-20T03:57:59;20.43;;;11.63;;
71622;SDS011;59473;53.214;5.728;2022-11-20T04:00:24;19.30;;;12.50;;
71622;SDS011;59473;53.214;5.728;2022-11-20T04:02:49;17.47;;;11.03;;
71622;SDS011;59473;53.214;5.728;2022-11-20T04:05:14;20.30;;;12.70;;
71622;SDS011;59473;53.214;5.728;2022-11-20T04:07:40;18.80;;;12.17;;
71622;SDS011;59473;53.214;5.728;2022-11-20T04:10:05;20.13;;;13.03;;
71622;SDS011;59473;53.214;5.728;2022-11-20T04:12:33;19.00;;;11.50;;
71622;SDS011;59473;53.214;5.728;2022-11-20T04:14:58;18.83;;;11.57;;
71622;SDS011;59473;53.214;5.728;2022-11-20T04:17:24;17.33;;;11.77;;
71622;SDS011;59473;53.214;5.728;2022-11-20T04:19:49;17.23;;;11.53;;
71622;SDS011;59473;53.214;5.728;2022-11-20T04:22:14;17.33;;;11.40;;
71622;SDS011;59473;53.214;5.728;2022-11-20T04:24:40;16.47;;;10.77;;
71622;SDS011;59473;53.214;5.728;2022-11-20T04:27:05;18.38;;;11.68;;
71622;SDS011;59473;53.214;5.728;2022-11-20T04:29:30;19.10;;;11.23;;
71622;SDS011;59473;53.214;5.728;2022-11-20T04:31:56;21.50;;;13.90;;
71622;SDS011;59473;53.214;5.728;2022-11-20T04:34:21;19.33;;;13.40;;
71622;SDS011;59473;53.214;5.728;2022-11-20T04:36:46;19.00;;;11.97;;
71622;SDS011;59473;53.214;5.728;2022-11-20T04:39:12;18.73;;;11.90;;
71622;SDS011;59473;53.214;5.728;2022-11-20T04:41:38;18.95;;;11.77;;
71622;SDS011;59473;53.214;5.728;2022-11-20T04:44:04;18.37;;;11.03;;
71622;SDS011;59473;53.214;5.728;2022-11-20T04:46:33;15.73;;;10.27;;
71622;SDS011;59473;53.214;5.728;2022-11-20T04:48:59;17.90;;;11.07;;
71622;SDS011;59473;53.214;5.728;2022-11-20T04:51:24;18.83;;;11.93;;
71622;SDS011;59473;53.214;5.728;2022-11-20T04:53:49;17.33;;;11.20;;
71622;SDS011;59473;53.214;5.728;2022-11-20T04:56:15;20.93;;;11.40;;
71622;SDS011;59473;53.214;5.728;2022-11-20T04:58:40;19.80;;;11.20;;
71622;SDS011;59473;53.214;5.728;2022-11-20T05:01:07;20.03;;;12.37;;
71622;SDS011;59473;53.214;5.728;2022-11-20T05:03:32;20.02;;;12.77;;
71622;SDS011;59473;53.214;5.728;2022-11-20T05:06:01;18.50;;;12.23;;
71622;SDS011;59473;53.214;5.728;2022-11-20T05:08:27;19.52;;;12.82;;
71622;SDS011;59473;53.214;5.728;2022-11-20T05:10:52;17.40;;;11.33;;
71622;SDS011;59473;53.214;5.728;2022-11-20T05:13:17;17.97;;;11.67;;
71622;SDS011;59473;53.214;5.728;2022-11-20T05:15:43;19.87;;;11.80;;
71622;SDS011;59473;53.214;5.728;2022-11-20T05:18:08;17.87;;;11.73;;
71622;SDS011;59473;53.214;5.728;2022-11-20T05:20:33;21.77;;;11.50;;
71622;SDS011;59473;53.214;5.728;2022-11-20T05:22:58;20.83;;;12.37;;
71622;SDS011;59473;53.214;5.728;2022-11-20T05:25:24;18.75;;;11.60;;
71622;SDS011;59473;53.214;5.728;2022-11-20T05:27:49;18.13;;;10.97;;
71622;SDS011;59473;53.214;5.728;2022-11-20T05:30:14;21.07;;;11.10;;
71622;SDS011;59473;53.214;5.728;2022-11-20T05:32:39;18.77;;;11.47;;
71622;SDS011;59473;53.214;5.728;2022-11-20T05:35:05;19.03;;;11.70;;
71622;SDS011;59473;53.214;5.728;2022-11-20T05:37:30;17.73;;;11.20;;
71622;SDS011;59473;53.214;5.728;2022-11-20T05:39:55;17.67;;;10.73;;
71622;SDS011;59473;53.214;5.728;2022-11-20T05:42:21;17.80;;;10.37;;
71622;SDS011;59473;53.214;5.728;2022-11-20T05:44:55;17.10;;;10.50;;
71622;SDS011;59473;53.214;5.728;2022-11-20T05:47:21;18.33;;;11.17;;
71622;SDS011;59473;53.214;5.728;2022-11-20T05:49:46;17.50;;;10.73;;
71622;SDS011;59473;53.214;5.728;2022-11-20T05:52:11;18.13;;;10.67;;
71622;SDS011;59473;53.214;5.728;2022-11-20T05:54:36;18.13;;;11.97;;
71622;SDS011;59473;53.214;5.728;2022-11-20T05:57:02;18.90;;;11.60;;
71622;SDS011;59473;53.214;5.728;2022-11-20T05:59:27;15.27;;;10.67;;
71622;SDS011;59473;53.214;5.728;2022-11-20T06:01:52;17.93;;;11.10;;
71622;SDS011;59473;53.214;5.728;2022-11-20T06:04:17;18.03;;;11.67;;
71622;SDS011;59473;53.214;5.728;2022-11-20T06:06:43;18.90;;;11.93;;
71622;SDS011;59473;53.214;5.728;2022-11-20T06:09:08;17.53;;;11.30;;
71622;SDS011;59473;53.214;5.728;2022-11-20T06:11:33;16.70;;;11.67;;
71622;SDS011;59473;53.214;5.728;2022-11-20T06:13:58;22.37;;;12.20;;
71622;SDS011;59473;53.214;5.728;2022-11-20T06:16:23;17.15;;;10.95;;
71622;SDS011;59473;53.214;5.728;2022-11-20T06:18:49;19.52;;;11.43;;
71622;SDS011;59473;53.214;5.728;2022-11-20T06:21:18;18.58;;;11.98;;
71622;SDS011;59473;53.214;5.728;2022-11-20T06:23:44;21.10;;;11.52;;
71622;SDS011;59473;53.214;5.728;2022-11-20T06:26:11;19.08;;;11.90;;
71622;SDS011;59473;53.214;5.728;2022-11-20T06:28:36;21.80;;;12.55;;
71622;SDS011;59473;53.214;5.728;2022-11-20T06:31:02;19.70;;;12.77;;
71622;SDS011;59473;53.214;5.728;2022-11-20T06:33:28;28.35;;;16.40;;
71622;SDS011;59473;53.214;5.728;2022-11-20T06:35:56;31.00;;;19.93;;
71622;SDS011;59473;53.214;5.728;2022-11-20T06:38:21;34.67;;;21.55;;
71622;SDS011;59473;53.214;5.728;2022-11-20T06:40:46;23.83;;;15.40;;
71622;SDS011;59473;53.214;5.728;2022-11-20T06:43:11;20.67;;;13.03;;
71622;SDS011;59473;53.214;5.728;2022-11-20T06:45:37;17.83;;;11.20;;
71622;SDS011;59473;53.214;5.728;2022-11-20T06:48:02;19.00;;;11.27;;
71622;SDS011;59473;53.214;5.728;2022-11-20T06:50:28;18.88;;;11.73;;
71622;SDS011;59473;53.214;5.728;2022-11-20T06:52:53;18.93;;;11.43;;
71622;SDS011;59473;53.214;5.728;2022-11-20T06:55:18;24.97;;;12.57;;
71622;SDS011;59473;53.214;5.728;2022-11-20T06:57:43;22.20;;;13.20;;
71622;SDS011;59473;53.214;5.728;2022-11-20T07:00:09;21.80;;;13.03;;
71622;SDS011;59473;53.214;5.728;2022-11-20T07:02:34;25.63;;;13.77;;
71622;SDS011;59473;53.214;5.728;2022-11-20T07:04:59;17.63;;;12.17;;
71622;SDS011;59473;53.214;5.728;2022-11-20T07:07:25;17.93;;;12.00;;
71622;SDS011;59473;53.214;5.728;2022-11-20T07:09:50;31.27;;;16.57;;
71622;SDS011;59473;53.214;5.728;2022-11-20T07:12:15;86.33;;;44.23;;
71622;SDS011;59473;53.214;5.728;2022-11-20T07:14:40;50.20;;;27.27;;
71622;SDS011;59473;53.214;5.728;2022-11-20T07:17:05;57.53;;;29.03;;
71622;SDS011;59473;53.214;5.728;2022-11-20T07:19:31;46.70;;;27.33;;
71622;SDS011;59473;53.214;5.728;2022-11-20T07:21:56;24.40;;;15.87;;
71622;SDS011;59473;53.214;5.728;2022-11-20T07:24:21;27.37;;;16.50;;
71622;SDS011;59473;53.214;5.728;2022-11-20T07:26:46;35.80;;;17.77;;
71622;SDS011;59473;53.214;5.728;2022-11-20T07:29:14;57.05;;;34.45;;
71622;SDS011;59473;53.214;5.728;2022-11-20T07:31:39;25.13;;;15.07;;
71622;SDS011;59473;53.214;5.728;2022-11-20T07:34:04;20.30;;;13.90;;
71622;SDS011;59473;53.214;5.728;2022-11-20T07:36:29;21.27;;;13.13;;
71622;SDS011;59473;53.214;5.728;2022-11-20T07:38:55;17.67;;;11.87;;
71622;SDS011;59473;53.214;5.728;2022-11-20T07:41:20;17.37;;;12.00;;
71622;SDS011;59473;53.214;5.728;2022-11-20T07:43:45;19.83;;;12.37;;
71622;SDS011;59473;53.214;5.728;2022-11-20T07:46:10;19.10;;;13.53;;
71622;SDS011;59473;53.214;5.728;2022-11-20T07:48:36;18.80;;;13.70;;
71622;SDS011;59473;53.214;5.728;2022-11-20T07:51:01;19.30;;;12.60;;
71622;SDS011;59473;53.214;5.728;2022-11-20T07:53:26;19.50;;;12.60;;
71622;SDS011;59473;53.214;5.728;2022-11-20T07:55:51;19.77;;;12.53;;
71622;SDS011;59473;53.214;5.728;2022-11-20T07:58:17;20.30;;;12.73;;
71622;SDS011;59473;53.214;5.728;2022-11-20T08:00:43;20.27;;;11.57;;
71622;SDS011;59473;53.214;5.728;2022-11-20T08:03:08;20.77;;;12.67;;
71622;SDS011;59473;53.214;5.728;2022-11-20T08:05:33;22.43;;;13.40;;
71622;SDS011;59473;53.214;5.728;2022-11-20T08:07:58;19.67;;;12.90;;
71622;SDS011;59473;53.214;5.728;2022-11-20T08:10:24;21.63;;;13.87;;
71622;SDS011;59473;53.214;5.728;2022-11-20T08:12:50;19.53;;;12.47;;
71622;SDS011;59473;53.214;5.728;2022-11-20T08:15:34;24.30;;;14.38;;
71622;SDS011;59473;53.214;5.728;2022-11-20T08:18:01;24.65;;;14.70;;
71622;SDS011;59473;53.214;5.728;2022-11-20T08:20:26;23.27;;;13.47;;
71622;SDS011;59473;53.214;5.728;2022-11-20T08:22:51;20.85;;;12.82;;
71622;SDS011;59473;53.214;5.728;2022-11-20T08:25:17;21.33;;;13.63;;
71622;SDS011;59473;53.214;5.728;2022-11-20T08:27:42;19.43;;;12.90;;
71622;SDS011;59473;53.214;5.728;2022-11-20T08:30:07;20.60;;;13.17;;
71622;SDS011;59473;53.214;5.728;2022-11-20T08:32:32;23.50;;;13.75;;
71622;SDS011;59473;53.214;5.728;2022-11-20T08:35:00;24.48;;;13.68;;
71622;SDS011;59473;53.214;5.728;2022-11-20T08:37:25;20.30;;;12.17;;
71622;SDS011;59473;53.214;5.728;2022-11-20T08:39:51;20.97;;;12.73;;
71622;SDS011;59473;53.214;5.728;2022-11-20T08:42:18;21.70;;;12.73;;
71622;SDS011;59473;53.214;5.728;2022-11-20T08:44:43;21.13;;;13.60;;
71622;SDS011;59473;53.214;5.728;2022-11-20T08:47:08;24.77;;;14.10;;
71622;SDS011;59473;53.214;5.728;2022-11-20T08:49:34;22.33;;;13.23;;
71622;SDS011;59473;53.214;5.728;2022-11-20T08:51:59;23.03;;;13.57;;
71622;SDS011;59473;53.214;5.728;2022-11-20T08:54:24;20.33;;;12.90;;
71622;SDS011;59473;53.214;5.728;2022-11-20T08:56:49;20.00;;;12.67;;
71622;SDS011;59473;53.214;5.728;2022-11-20T08:59:14;21.77;;;12.70;;
71622;SDS011;59473;53.214;5.728;2022-11-20T09:01:40;24.40;;;13.77;;
71622;SDS011;59473;53.214;5.728;2022-11-20T09:04:05;23.83;;;13.33;;
71622;SDS011;59473;53.214;5.728;2022-11-20T09:06:30;20.40;;;13.45;;
71622;SDS011;59473;53.214;5.728;2022-11-20T09:08:55;23.35;;;14.43;;
71622;SDS011;59473;53.214;5.728;2022-11-20T09:11:21;21.13;;;13.77;;
71622;SDS011;59473;53.214;5.728;2022-11-20T09:13:47;19.70;;;13.43;;
71622;SDS011;59473;53.214;5.728;2022-11-20T09:16:12;21.37;;;13.17;;
71622;SDS011;59473;53.214;5.728;2022-11-20T09:18:37;18.67;;;12.20;;
71622;SDS011;59473;53.214;5.728;2022-11-20T09:21:04;21.05;;;12.77;;
71622;SDS011;59473;53.214;5.728;2022-11-20T09:23:33;18.80;;;11.95;;
71622;SDS011;59473;53.214;5.728;2022-11-20T09:26:09;19.45;;;12.60;;
71622;SDS011;59473;53.214;5.728;2022-11-20T09:28:35;17.60;;;11.17;;
71622;SDS011;59473;53.214;5.728;2022-11-20T09:31:00;19.07;;;11.83;;
71622;SDS011;59473;53.214;5.728;2022-11-20T09:33:25;18.87;;;12.30;;
71622;SDS011;59473;53.214;5.728;2022-11-20T09:35:50;18.33;;;11.77;;
71622;SDS011;59473;53.214;5.728;2022-11-20T09:38:16;19.20;;;12.10;;
71622;SDS011;59473;53.214;5.728;2022-11-20T09:40:50;18.27;;;11.77;;
71622;SDS011;59473;53.214;5.728;2022-11-20T09:43:19;17.07;;;11.43;;
71622;SDS011;59473;53.214;5.728;2022-11-20T09:50:43;37.27;;;17.10;;
71622;SDS011;59473;53.214;5.728;2022-11-20T09:55:40;35.25;;;18.17;;
71622;SDS011;59473;53.214;5.728;2022-11-20T09:58:07;31.37;;;16.90;;
71622;SDS011;59473;53.214;5.728;2022-11-20T10:00:38;23.65;;;15.25;;
71622;SDS011;59473;53.214;5.728;2022-11-20T10:06:08;20.35;;;12.48;;
71622;SDS011;59473;53.214;5.728;2022-11-20T10:08:45;18.95;;;12.48;;
71622;SDS011;59473;53.214;5.728;2022-11-20T10:11:18;19.57;;;12.00;;
71622;SDS011;59473;53.214;5.728;2022-11-20T10:24:34;20.10;;;11.60;;
71622;SDS011;59473;53.214;5.728;2022-11-20T10:27:30;17.00;;;11.63;;
71622;SDS011;59473;53.214;5.728;2022-11-20T10:30:03;21.52;;;15.63;;
71622;SDS011;59473;53.214;5.728;2022-11-20T10:32:42;23.52;;;17.05;;
71622;SDS011;59473;53.214;5.728;2022-11-20T10:35:17;16.73;;;10.80;;
71622;SDS011;59473;53.214;5.728;2022-11-20T10:37:44;17.50;;;12.10;;
71622;SDS011;59473;53.214;5.728;2022-11-20T10:40:19;19.70;;;11.07;;
71622;SDS011;59473;53.214;5.728;2022-11-20T10:42:53;24.40;;;15.88;;
71622;SDS011;59473;53.214;5.728;2022-11-20T10:47:49;21.83;;;14.20;;
71622;SDS011;59473;53.214;5.728;2022-11-20T10:50:16;17.73;;;11.73;;
71622;SDS011;59473;53.214;5.728;2022-11-20T10:52:56;19.48;;;11.77;;
71622;SDS011;59473;53.214;5.728;2022-11-20T11:00:45;13.85;;;9.80;;
71622;SDS011;59473;53.214;5.728;2022-11-20T11:06:00;18.37;;;13.03;;
71622;SDS011;59473;53.214;5.728;2022-11-20T11:08:28;25.80;;;16.60;;
71622;SDS011;59473;53.214;5.728;2022-11-20T11:10:59;18.00;;;12.82;;
71622;SDS011;59473;53.214;5.728;2022-11-20T11:13:27;17.80;;;10.85;;
71622;SDS011;59473;53.214;5.728;2022-11-20T11:15:53;17.08;;;11.80;;
71622;SDS011;59473;53.214;5.728;2022-11-20T11:20:53;34.30;;;19.55;;
71622;SDS011;59473;53.214;5.728;2022-11-20T11:23:30;19.23;;;12.65;;
71622;SDS011;59473;53.214;5.728;2022-11-20T11:25:57;17.23;;;11.93;;
71622;SDS011;59473;53.214;5.728;2022-11-20T11:28:23;21.57;;;15.37;;
71622;SDS011;59473;53.214;5.728;2022-11-20T11:30:51;24.55;;;16.15;;
71622;SDS011;59473;53.214;5.728;2022-11-20T11:33:20;17.90;;;12.63;;
71622;SDS011;59473;53.214;5.728;2022-11-20T11:35:49;16.27;;;10.70;;
71622;SDS011;59473;53.214;5.728;2022-11-20T11:38:21;15.50;;;10.47;;
71622;SDS011;59473;53.214;5.728;2022-11-20T11:40:46;15.63;;;10.23;;
71622;SDS011;59473;53.214;5.728;2022-11-20T11:43:31;13.77;;;9.63;;
71622;SDS011;59473;53.214;5.728;2022-11-20T11:46:29;13.70;;;9.95;;
71622;SDS011;59473;53.214;5.728;2022-11-20T11:49:11;15.27;;;9.52;;
71622;SDS011;59473;53.214;5.728;2022-11-20T11:54:05;12.63;;;9.23;;
71622;SDS011;59473;53.214;5.728;2022-11-20T11:56:35;16.97;;;11.17;;
71622;SDS011;59473;53.214;5.728;2022-11-20T11:59:01;13.77;;;10.68;;
71622;SDS011;59473;53.214;5.728;2022-11-20T12:01:32;10.43;;;8.07;;
71622;SDS011;59473;53.214;5.728;2022-11-20T12:04:04;12.07;;;8.45;;
71622;SDS011;59473;53.214;5.728;2022-11-20T12:06:30;12.20;;;8.88;;
71622;SDS011;59473;53.214;5.728;2022-11-20T12:09:01;13.33;;;9.07;;
71622;SDS011;59473;53.214;5.728;2022-11-20T12:11:32;10.32;;;7.88;;
71622;SDS011;59473;53.214;5.728;2022-11-20T12:13:59;12.85;;;7.95;;
71622;SDS011;59473;53.214;5.728;2022-11-20T12:16:28;10.75;;;7.72;;
71622;SDS011;59473;53.214;5.728;2022-11-20T12:18:55;12.18;;;7.70;;
71622;SDS011;59473;53.214;5.728;2022-11-20T12:23:54;10.43;;;7.77;;
71622;SDS011;59473;53.214;5.728;2022-11-20T12:29:32;11.80;;;8.53;;
71622;SDS011;59473;53.214;5.728;2022-11-20T12:34:15;15.68;;;10.23;;
71622;SDS011;59473;53.214;5.728;2022-11-20T12:36:55;17.08;;;9.73;;
71622;SDS011;59473;53.214;5.728;2022-11-20T12:39:30;30.80;;;15.73;;
71622;SDS011;59473;53.214;5.728;2022-11-20T12:55:32;12.60;;;8.13;;
71622;SDS011;59473;53.214;5.728;2022-11-20T12:58:12;9.57;;;6.97;;
71622;SDS011;59473;53.214;5.728;2022-11-20T13:00:56;11.18;;;7.43;;
71622;SDS011;59473;53.214;5.728;2022-11-20T13:03:27;11.43;;;8.10;;
71622;SDS011;59473;53.214;5.728;2022-11-20T13:08:29;11.48;;;8.02;;
71622;SDS011;59473;53.214;5.728;2022-11-20T13:11:03;11.97;;;7.33;;
71622;SDS011;59473;53.214;5.728;2022-11-20T13:18:48;11.38;;;7.88;;
71622;SDS011;59473;53.214;5.728;2022-11-20T13:21:14;15.63;;;9.20;;
71622;SDS011;59473;53.214;5.728;2022-11-20T13:23:40;12.15;;;8.50;;
71622;SDS011;59473;53.214;5.728;2022-11-20T13:26:06;26.80;;;13.73;;
71622;SDS011;59473;53.214;5.728;2022-11-20T13:28:38;28.77;;;15.37;;
71622;SDS011;59473;53.214;5.728;2022-11-20T13:31:09;30.08;;;14.95;;
71622;SDS011;59473;53.214;5.728;2022-11-20T13:33:35;16.33;;;10.00;;
71622;SDS011;59473;53.214;5.728;2022-11-20T13:36:21;20.08;;;11.88;;
71622;SDS011;59473;53.214;5.728;2022-11-20T13:38:47;35.08;;;18.88;;
71622;SDS011;59473;53.214;5.728;2022-11-20T13:41:23;16.37;;;10.27;;
71622;SDS011;59473;53.214;5.728;2022-11-20T13:49:06;12.98;;;8.43;;
71622;SDS011;59473;53.214;5.728;2022-11-20T13:51:48;11.27;;;7.72;;
71622;SDS011;59473;53.214;5.728;2022-11-20T13:57:16;15.20;;;11.18;;
71622;SDS011;59473;53.214;5.728;2022-11-20T14:02:22;14.05;;;9.18;;
71622;SDS011;59473;53.214;5.728;2022-11-20T14:04:48;19.55;;;13.57;;
71622;SDS011;59473;53.214;5.728;2022-11-20T14:07:15;23.10;;;15.30;;
71622;SDS011;59473;53.214;5.728;2022-11-20T14:09:49;24.48;;;14.45;;
71622;SDS011;59473;53.214;5.728;2022-11-20T14:12:15;24.45;;;16.35;;
71622;SDS011;59473;53.214;5.728;2022-11-20T14:14:47;21.52;;;13.05;;
71622;SDS011;59473;53.214;5.728;2022-11-20T14:17:20;16.85;;;11.50;;
71622;SDS011;59473;53.214;5.728;2022-11-20T14:19:46;16.73;;;10.10;;
71622;SDS011;59473;53.214;5.728;2022-11-20T14:22:17;17.02;;;9.15;;
71622;SDS011;59473;53.214;5.728;2022-11-20T14:24:46;25.40;;;14.95;;
71622;SDS011;59473;53.214;5.728;2022-11-20T14:27:12;16.92;;;10.30;;
71622;SDS011;59473;53.214;5.728;2022-11-20T14:29:38;20.45;;;13.13;;
71622;SDS011;59473;53.214;5.728;2022-11-20T14:32:03;31.87;;;14.50;;
71622;SDS011;59473;53.214;5.728;2022-11-20T14:34:30;20.47;;;12.93;;
71622;SDS011;59473;53.214;5.728;2022-11-20T14:36:59;13.48;;;8.85;;
71622;SDS011;59473;53.214;5.728;2022-11-20T14:39:27;16.80;;;10.52;;
71622;SDS011;59473;53.214;5.728;2022-11-20T14:41:54;15.10;;;9.88;;
71622;SDS011;59473;53.214;5.728;2022-11-20T14:44:26;24.67;;;13.97;;
71622;SDS011;59473;53.214;5.728;2022-11-20T14:46:52;15.75;;;9.98;;
71622;SDS011;59473;53.214;5.728;2022-11-20T14:49:19;16.83;;;10.20;;
71622;SDS011;59473;53.214;5.728;2022-11-20T14:51:44;20.77;;;11.82;;
71622;SDS011;59473;53.214;5.728;2022-11-20T14:54:12;21.97;;;10.97;;
71622;SDS011;59473;53.214;5.728;2022-11-20T14:56:39;29.02;;;15.75;;
71622;SDS011;59473;53.214;5.728;2022-11-20T14:59:04;28.20;;;13.23;;
71622;SDS011;59473;53.214;5.728;2022-11-20T15:01:31;23.87;;;12.37;;
71622;SDS011;59473;53.214;5.728;2022-11-20T15:04:00;16.05;;;10.02;;
71622;SDS011;59473;53.214;5.728;2022-11-20T15:06:26;14.07;;;8.50;;
71622;SDS011;59473;53.214;5.728;2022-11-20T15:08:52;15.40;;;9.43;;
71622;SDS011;59473;53.214;5.728;2022-11-20T15:11:18;13.98;;;9.30;;
71622;SDS011;59473;53.214;5.728;2022-11-20T15:13:44;14.57;;;9.40;;
71622;SDS011;59473;53.214;5.728;2022-11-20T15:16:13;16.17;;;9.43;;
71622;SDS011;59473;53.214;5.728;2022-11-20T15:18:40;13.37;;;8.40;;
71622;SDS011;59473;53.214;5.728;2022-11-20T15:21:13;16.80;;;8.82;;
71622;SDS011;59473;53.214;5.728;2022-11-20T15:23:38;12.27;;;8.25;;
71622;SDS011;59473;53.214;5.728;2022-11-20T15:26:04;12.20;;;7.87;;
71622;SDS011;59473;53.214;5.728;2022-11-20T15:28:31;11.18;;;7.60;;
71622;SDS011;59473;53.214;5.728;2022-11-20T15:30:56;12.85;;;8.55;;
71622;SDS011;59473;53.214;5.728;2022-11-20T15:33:22;14.10;;;9.10;;
71622;SDS011;59473;53.214;5.728;2022-11-20T15:35:47;12.70;;;8.03;;
71622;SDS011;59473;53.214;5.728;2022-11-20T15:38:12;11.90;;;8.27;;
71622;SDS011;59473;53.214;5.728;2022-11-20T15:40:38;14.43;;;8.43;;
71622;SDS011;59473;53.214;5.728;2022-11-20T15:43:03;15.03;;;9.13;;
71622;SDS011;59473;53.214;5.728;2022-11-20T15:45:50;12.33;;;8.17;;
71622;SDS011;59473;53.214;5.728;2022-11-20T15:48:15;12.95;;;9.32;;